createdAt,value
2023-12-09T00:03:52.653Z,89.31
2023-12-09T00:08:54.367Z,89.72
2023-12-09T00:13:55.967Z,89.66
2023-12-09T00:18:59.499Z,90.12
2023-12-09T00:24:01.058Z,89.77
2023-12-09T00:29:02.518Z,89.49
2023-12-09T00:34:04.121Z,89.70
2023-12-09T00:39:06.371Z,89.91
2023-12-09T00:44:07.945Z,90.15
2023-12-09T00:49:09.589Z,90.05
2023-12-09T00:54:11.225Z,90.23
2023-12-09T00:59:12.700Z,89.96
2023-12-09T01:04:14.467Z,89.94
2023-12-09T01:09:16.073Z,90.04
2023-12-09T01:14:17.687Z,90.04
2023-12-09T01:19:19.195Z,90.04
2023-12-09T01:24:21.051Z,90.65
2023-12-09T01:29:22.508Z,90.26
2023-12-09T01:34:24.024Z,90.22
2023-12-09T01:39:25.598Z,90.12
2023-12-09T01:44:27.127Z,90.04
2023-12-09T01:49:29.064Z,90.06
2023-12-09T01:54:30.878Z,89.97
2023-12-09T01:59:32.447Z,90.30
2023-12-09T02:04:34.053Z,90.24
2023-12-09T02:09:38.598Z,89.49
2023-12-09T02:14:46.257Z,89.59
2023-12-09T02:19:48.277Z,89.72
2023-12-09T02:24:49.735Z,89.48
2023-12-09T02:29:57.160Z,89.53
2023-12-09T02:35:01.064Z,89.60
2023-12-09T02:40:03.471Z,89.33
2023-12-09T02:45:07.417Z,89.29
2023-12-09T02:50:09.231Z,89.35
2023-12-09T02:55:12.501Z,89.51
2023-12-09T03:00:14.632Z,89.85
2023-12-09T03:05:16.186Z,89.86
2023-12-09T03:10:17.688Z,90.02
2023-12-09T03:15:19.270Z,89.89
2023-12-09T03:20:21.943Z,90.21
2023-12-09T03:25:23.421Z,90.46
2023-12-09T03:30:24.945Z,89.86
2023-12-09T03:35:26.428Z,89.80
2023-12-09T03:40:27.882Z,89.98
2023-12-09T03:45:29.473Z,90.04
2023-12-09T03:50:30.953Z,89.95
2023-12-09T03:55:32.434Z,89.48
2023-12-09T04:00:33.982Z,89.40
2023-12-09T04:05:35.578Z,89.67
2023-12-09T04:10:37.085Z,89.97
2023-12-09T04:15:41.515Z,89.46
2023-12-09T04:20:43.077Z,89.67
2023-12-09T04:25:44.560Z,89.70
2023-12-09T04:30:46.048Z,89.92
2023-12-09T04:35:47.625Z,89.60
2023-12-09T04:40:49.220Z,89.55
2023-12-09T04:45:50.761Z,89.77
2023-12-09T04:50:52.279Z,89.80
2023-12-09T04:55:53.766Z,90.16
2023-12-09T05:00:55.257Z,90.15
2023-12-09T05:05:56.962Z,90.30
2023-12-09T05:10:59.227Z,90.18
2023-12-09T05:16:00.672Z,90.28
2023-12-09T05:21:02.202Z,89.97
2023-12-09T05:26:03.981Z,90.23
2023-12-09T05:31:05.617Z,89.72
2023-12-09T05:36:07.610Z,89.84
2023-12-09T05:41:09.965Z,90.53
2023-12-09T05:46:21.411Z,89.72
2023-12-09T05:51:22.954Z,89.97
2023-12-09T05:56:24.489Z,90.36
2023-12-09T06:01:25.993Z,90.19
2023-12-09T06:06:27.702Z,89.72
2023-12-09T06:11:29.253Z,90.13
2023-12-09T06:16:30.798Z,89.52
2023-12-09T06:21:32.312Z,89.62
2023-12-09T06:26:33.854Z,89.28
2023-12-09T06:31:35.452Z,89.96
2023-12-09T06:36:37.079Z,89.59
2023-12-09T06:41:41.414Z,89.88
2023-12-09T06:46:42.969Z,90.03
2023-12-09T06:51:44.803Z,90.15
2023-12-09T06:56:46.385Z,90.23
2023-12-09T07:01:50.421Z,90.25
2023-12-09T07:06:51.964Z,90.09
2023-12-09T07:12:01.752Z,89.99
2023-12-09T07:17:04.387Z,90.52
2023-12-09T07:22:06.338Z,90.20
2023-12-09T07:27:08.042Z,90.22
2023-12-09T07:32:09.617Z,90.10
2023-12-09T07:37:12.818Z,90.94
2023-12-09T07:42:14.428Z,90.57
2023-12-09T07:47:16.170Z,90.68
2023-12-09T07:52:17.725Z,91.08
2023-12-09T07:57:34.504Z,91.36
2023-12-09T08:02:36.226Z,91.50
2023-12-09T08:07:38.137Z,91.73
2023-12-09T08:12:39.770Z,91.32
2023-12-09T08:17:41.669Z,91.79
2023-12-09T08:22:43.265Z,91.85
2023-12-09T08:27:54.481Z,91.89
2023-12-09T17:05:58.586Z,85.69
2023-12-09T17:11:02.424Z,86.04
2023-12-09T17:16:04.930Z,86.96
2023-12-09T17:21:06.614Z,87.66
2023-12-09T17:26:08.178Z,87.66
2023-12-09T17:31:09.769Z,88.15
2023-12-09T17:36:11.476Z,87.74
2023-12-09T17:41:13.018Z,88.07
2023-12-09T17:46:14.599Z,88.77
2023-12-09T17:51:16.265Z,89.22
2023-12-09T17:56:17.869Z,89.36
2023-12-09T18:01:20.090Z,89.87
2023-12-09T18:06:22.584Z,90.25
2023-12-09T18:11:24.163Z,90.39
2023-12-09T18:16:26.146Z,90.40
2023-12-09T18:21:27.850Z,89.86
2023-12-09T18:26:29.377Z,89.71
2023-12-09T18:31:30.882Z,89.96
2023-12-09T18:36:32.478Z,90.16
2023-12-09T18:41:34.057Z,89.69
2023-12-09T18:46:35.710Z,89.80
2023-12-09T18:51:37.392Z,89.67
2023-12-09T18:56:39.083Z,90.11
2023-12-09T19:01:40.852Z,89.85
2023-12-09T19:06:49.885Z,90.16
2023-12-09T19:11:58.282Z,89.66
2023-12-09T19:16:59.901Z,89.23
2023-12-09T19:22:01.476Z,88.79
2023-12-09T19:27:04.820Z,88.56
2023-12-09T19:32:07.226Z,88.19
2023-12-09T19:37:08.882Z,88.56
2023-12-09T19:42:10.507Z,88.03
2023-12-09T19:47:12.055Z,88.57
2023-12-09T19:52:13.866Z,88.50
2023-12-09T19:57:15.422Z,88.62
2023-12-09T20:02:16.956Z,87.81
2023-12-09T20:07:18.990Z,88.39
2023-12-09T20:12:20.592Z,89.08
2023-12-09T20:17:22.175Z,89.26
2023-12-09T20:22:23.804Z,89.38
2023-12-09T20:27:25.454Z,88.82
2023-12-09T20:32:27.628Z,89.32
2023-12-09T20:37:29.379Z,89.02
2023-12-09T20:42:31.116Z,88.09
2023-12-09T20:47:33.393Z,88.27
2023-12-09T20:52:35.006Z,88.05
2023-12-09T20:57:36.612Z,88.48
2023-12-09T21:02:39.717Z,88.40
2023-12-09T21:07:41.402Z,88.16
2023-12-09T21:12:43.013Z,88.38
2023-12-09T21:17:44.678Z,88.25
2023-12-09T21:22:46.200Z,87.91
2023-12-09T21:27:47.803Z,87.82
2023-12-09T21:32:49.377Z,87.68
2023-12-09T21:37:50.916Z,87.84
2023-12-09T21:42:52.952Z,88.23
2023-12-09T21:47:55.636Z,88.64
2023-12-09T21:52:57.757Z,88.22
2023-12-09T21:57:59.315Z,87.45
2023-12-09T22:03:01.966Z,87.58
2023-12-09T22:08:03.694Z,87.22
2023-12-09T22:13:06.423Z,87.17
2023-12-09T22:18:08.976Z,86.77
2023-12-09T22:23:10.632Z,86.76
2023-12-09T22:28:12.201Z,87.15
2023-12-09T22:33:13.779Z,86.75
2023-12-09T22:38:15.350Z,87.79
2023-12-09T22:43:16.848Z,87.64
2023-12-09T22:48:18.666Z,87.46
2023-12-09T22:53:20.390Z,88.24
2023-12-09T22:58:22.252Z,87.24
2023-12-09T23:03:27.572Z,86.95
2023-12-09T23:08:29.517Z,86.75
2023-12-09T23:13:31.063Z,87.21
